University of Wyoming, Wyoming
Current Conditions -  °F | °C
As of 3:09 PM on Monday 22 Dec 2014 (Local Time) from KLAR Reporting Station
Light Snow Light Snow  
Wind Chill: -15°   Ceiling: 1800
Heat Index: -6°   Visibility: 0.5mi
Dew Point: -7°   Wind: 26mph
Humidity: 89%   Direction: 330°NNW
Pressure: 29.68"   Gusts: 33mph
Location:  41.4218°N, 105.605°W
Report Text: KLAR 222209Z AUTO 33023G29KT 1/2SM -SN FZFG BKN018 OVC120 M06/M07 A2968 RMK AO2 PK WND 32031/2157 SNB2154 P0000 T10561072
Loading
Personal Weather Stations






























Interactive Weather Map New forecast layout! Learn more

10-Day Weather Forecast

Advertisements
Track Severe Weather on mobile